Stith, Texas
Current Conditions -  °F | °C
As of 4:58 PM on Thursday 18 Dec 2014 (Local Time) from KDYS Reporting Station
Clear Clear  
Wind Chill: 56°   Ceiling: Unl
Heat Index: 56°   Visibility: 10mi
Dew Point: 40°   Wind: 13mph
Humidity: 54%   Direction: 40°NE
Pressure: 30.06"   Gusts: NA
Location:  32.3913°N, 100.009°W
Report Text: KDYS 182258Z AUTO 04011KT 10SM CLR 13/04 A3006 RMK AO2 SLP174 T01340043
Loading
Personal Weather Stations






























Interactive Weather Map New forecast layout! Learn more

10-Day Weather Forecast

Advertisements
Track Severe Weather on mobile